Time;durP1;ratioP1;P1;durP2;ratioP2;P2;SDS_P1;SDS_P2;PMS_P1;PMS_P2;Temp;Humidity;BMP_temperature;BMP_pressure;BME280_temperature;BME280_humidity;BME280_pressure;Samples;Min_cycle;Max_cycle;Signal;HPM_P1;HPM_P2
2021/05/28 00:01:35;;;;;;;2.40;1.20;;;11.20;99.90;;;;;;5061457;28;20028;-81
2021/05/28 00:04:00;;;;;;;4.30;1.30;;;11.20;99.90;;;;;;5079788;28;20056;-80
2021/05/28 00:06:26;;;;;;;2.97;1.50;;;11.20;99.90;;;;;;5080732;28;20024;-80
2021/05/28 00:08:52;;;;;;;4.05;1.88;;;11.10;99.90;;;;;;5080019;28;20025;-81
2021/05/28 00:11:17;;;;;;;5.00;2.42;;;11.10;99.90;;;;;;5078130;28;20024;-79
2021/05/28 00:13:43;;;;;;;4.90;2.30;;;11.10;99.90;;;;;;5079318;28;20467;-80
2021/05/28 00:16:09;;;;;;;4.80;3.03;;;11.00;99.90;;;;;;5079417;28;20419;-80
2021/05/28 00:18:35;;;;;;;4.53;2.78;;;11.00;99.90;;;;;;5078245;28;20031;-81
2021/05/28 00:21:00;;;;;;;5.40;2.90;;;11.00;99.90;;;;;;5078997;28;20087;-79
2021/05/28 00:23:26;;;;;;;6.00;3.53;;;10.90;99.90;;;;;;5071913;28;20029;-79
2021/05/28 00:25:51;;;;;;;4.40;2.63;;;10.90;99.90;;;;;;5061198;28;20115;-80
2021/05/28 00:28:18;;;;;;;5.97;3.30;;;10.90;99.90;;;;;;5080064;28;20028;-80
2021/05/28 00:30:44;;;;;;;5.38;3.10;;;10.90;99.90;;;;;;5080197;28;20063;-80
2021/05/28 00:33:09;;;;;;;5.85;3.38;;;10.80;99.90;;;;;;5060939;28;20036;-81
2021/05/28 00:35:35;;;;;;;5.60;3.60;;;10.80;99.90;;;;;;5079572;28;20032;-81
2021/05/28 00:38:00;;;;;;;6.28;3.92;;;10.80;99.90;;;;;;5079836;28;20024;-81
2021/05/28 00:40:26;;;;;;;6.65;3.65;;;10.80;99.90;;;;;;5078828;28;20115;-81
2021/05/28 00:42:52;;;;;;;6.88;3.72;;;10.80;99.90;;;;;;5080119;28;20507;-80
2021/05/28 00:45:18;;;;;;;6.35;4.03;;;10.80;99.90;;;;;;5061926;28;20075;-79
2021/05/28 00:47:44;;;;;;;7.95;4.50;;;10.90;99.90;;;;;;5080287;28;20043;-80
2021/05/28 00:50:10;;;;;;;8.40;4.60;;;10.90;99.90;;;;;;5078786;28;20024;-81
2021/05/28 00:52:36;;;;;;;7.95;4.82;;;10.90;99.90;;;;;;5080067;28;20465;-81
2021/05/28 00:55:03;;;;;;;6.93;4.07;;;10.90;99.90;;;;;;5080280;28;20040;-80
2021/05/28 00:57:29;;;;;;;7.82;4.50;;;10.90;99.90;;;;;;5047985;28;20029;-81
2021/05/28 00:59:57;;;;;;;8.40;4.32;;;10.90;99.90;;;;;;5058909;28;20033;-80
2021/05/28 01:02:24;;;;;;;7.55;4.65;;;10.90;99.90;;;;;;5058999;28;20053;-81
2021/05/28 01:04:49;;;;;;;5.72;3.90;;;10.90;99.90;;;;;;5067977;28;20042;-80
2021/05/28 01:07:15;;;;;;;6.07;4.18;;;10.90;99.90;;;;;;5079749;28;20028;-80
2021/05/28 01:09:40;;;;;;;7.53;4.40;;;10.90;99.90;;;;;;5080297;28;20032;-79
2021/05/28 01:12:06;;;;;;;6.90;4.05;;;10.90;99.90;;;;;;5079768;28;20064;-81
2021/05/28 01:14:32;;;;;;;8.48;4.60;;;10.90;99.90;;;;;;5058522;28;20020;-80
2021/05/28 01:16:57;;;;;;;6.70;4.03;;;10.90;99.90;;;;;;5059800;28;20108;-80
2021/05/28 01:19:25;;;;;;;6.55;4.05;;;10.90;99.90;;;;;;5058959;28;20087;-80
2021/05/28 01:21:52;;;;;;;9.45;4.00;;;11.00;99.90;;;;;;5062333;28;20027;-80
2021/05/28 01:24:18;;;;;;;7.10;3.90;;;10.80;99.90;;;;;;5079745;28;20064;-81
2021/05/28 01:26:44;;;;;;;5.15;3.35;;;10.80;99.90;;;;;;5080298;28;20036;-81
2021/05/28 01:29:09;;;;;;;7.93;3.33;;;10.80;99.90;;;;;;5079283;28;20079;-81
2021/05/28 01:31:35;;;;;;;6.43;3.35;;;10.80;99.90;;;;;;5079768;28;20565;-81
2021/05/28 01:34:02;;;;;;;6.05;3.05;;;10.80;99.90;;;;;;5079964;28;20087;-81
2021/05/28 01:36:28;;;;;;;7.85;3.13;;;10.80;99.90;;;;;;5079972;28;20032;-81
2021/05/28 01:38:54;;;;;;;5.13;2.92;;;10.80;99.90;;;;;;5061894;28;20390;-81
2021/05/28 01:41:19;;;;;;;5.68;2.80;;;10.80;99.90;;;;;;5079309;28;20035;-80
2021/05/28 01:43:45;;;;;;;4.85;2.60;;;10.80;99.90;;;;;;5079435;28;20031;-81
2021/05/28 01:46:11;;;;;;;5.57;2.40;;;10.90;99.90;;;;;;5071316;28;20031;-80
2021/05/28 01:48:39;;;;;;;6.45;2.80;;;10.90;99.90;;;;;;5072936;28;20045;-80
2021/05/28 01:51:06;;;;;;;4.15;2.53;;;10.80;99.90;;;;;;5065456;28;20016;-80
2021/05/28 01:53:32;;;;;;;4.78;2.60;;;10.80;99.90;;;;;;5084941;28;20017;-80
2021/05/28 01:55:58;;;;;;;3.88;2.08;;;10.80;99.90;;;;;;5078388;28;20008;-80
2021/05/28 01:58:24;;;;;;;3.90;1.90;;;10.80;99.90;;;;;;5077514;28;20779;-79
2021/05/28 02:00:52;;;;;;;5.03;2.38;;;10.80;99.90;;;;;;5076335;28;20036;-81
2021/05/28 02:03:18;;;;;;;5.30;2.13;;;10.80;99.90;;;;;;5076671;28;20029;-81
2021/05/28 02:05:45;;;;;;;4.72;2.13;;;10.80;99.90;;;;;;5077664;28;20048;-81
2021/05/28 02:08:12;;;;;;;4.53;2.50;;;10.80;99.90;;;;;;5077896;28;20398;-80
2021/05/28 02:10:37;;;;;;;6.13;2.30;;;10.80;99.90;;;;;;5077474;28;20051;-80
2021/05/28 02:13:03;;;;;;;4.28;2.42;;;10.80;99.90;;;;;;5076914;28;20061;-80
2021/05/28 02:15:29;;;;;;;4.30;2.35;;;10.70;99.90;;;;;;5073799;28;20032;-81
2021/05/28 02:17:55;;;;;;;4.60;2.25;;;10.70;99.90;;;;;;5080496;28;20180;-81
2021/05/28 02:20:21;;;;;;;4.80;2.42;;;10.80;99.90;;;;;;5079340;28;20021;-81
2021/05/28 02:22:47;;;;;;;3.55;2.08;;;10.80;99.90;;;;;;5061887;28;20056;-81
2021/05/28 02:25:13;;;;;;;4.10;2.33;;;10.70;99.90;;;;;;5078858;28;20094;-81
2021/05/28 02:27:40;;;;;;;4.70;2.50;;;10.80;99.90;;;;;;5078209;28;20044;-80
2021/05/28 02:30:07;;;;;;;3.60;2.10;;;10.80;99.90;;;;;;5079239;28;20032;-81
2021/05/28 02:32:33;;;;;;;3.95;2.10;;;10.70;99.90;;;;;;5079133;28;20021;-81
2021/05/28 02:34:59;;;;;;;4.80;2.13;;;10.80;99.90;;;;;;5076359;28;20025;-81
2021/05/28 02:37:25;;;;;;;3.60;1.92;;;10.80;99.90;;;;;;5077247;28;20031;-80
2021/05/28 02:39:51;;;;;;;3.70;2.13;;;10.70;99.90;;;;;;5079373;28;20043;-81
2021/05/28 02:42:17;;;;;;;4.60;2.30;;;10.80;99.90;;;;;;5077461;28;20032;-81
2021/05/28 02:44:42;;;;;;;4.53;2.30;;;10.70;99.90;;;;;;5079225;28;20067;-81
2021/05/28 02:47:09;;;;;;;5.90;2.17;;;10.80;99.90;;;;;;5078788;28;20052;-81
2021/05/28 02:49:36;;;;;;;4.60;2.63;;;10.80;99.90;;;;;;5077631;28;20040;-81
2021/05/28 02:52:03;;;;;;;5.25;2.55;;;10.80;99.90;;;;;;5077474;28;20032;-79
2021/05/28 02:54:29;;;;;;;6.30;2.08;;;10.80;99.90;;;;;;5078436;28;20016;-80
2021/05/28 02:56:55;;;;;;;3.83;2.40;;;10.70;99.90;;;;;;5060376;28;20046;-80
2021/05/28 02:59:20;;;;;;;4.20;2.40;;;10.70;99.90;;;;;;5079782;28;20043;-81
2021/05/28 03:01:46;;;;;;;4.45;2.22;;;10.70;99.90;;;;;;5050949;28;20032;-80
2021/05/28 03:04:12;;;;;;;3.80;1.90;;;10.70;99.90;;;;;;5061650;28;20094;-80
2021/05/28 03:06:38;;;;;;;6.40;2.33;;;10.60;99.90;;;;;;5045215;28;20028;-79
2021/05/28 03:09:04;;;;;;;4.97;2.25;;;10.70;99.90;;;;;;5061592;28;20056;-80
2021/05/28 03:11:30;;;;;;;6.57;2.42;;;10.70;99.90;;;;;;5043979;28;20141;-80
2021/05/28 03:13:56;;;;;;;5.65;2.40;;;10.60;99.90;;;;;;5061200;28;20025;-78
2021/05/28 03:16:21;;;;;;;5.07;2.60;;;10.70;99.90;;;;;;5061847;28;20035;-79
2021/05/28 03:18:52;;;;;;;4.22;2.30;;;10.60;99.90;;;;;;5066678;28;20039;-78
2021/05/28 03:23:52;;;;;;;5.88;2.22;;;10.60;99.90;;;;;;5080639;28;20282;-78
2021/05/28 03:26:18;;;;;;;3.83;2.30;;;10.60;99.90;;;;;;5078528;28;20036;-80
2021/05/28 03:28:44;;;;;;;4.07;2.08;;;10.60;99.90;;;;;;5080535;28;20472;-80
2021/05/28 03:31:10;;;;;;;5.30;2.05;;;10.60;99.90;;;;;;5081240;28;20108;-80
2021/05/28 03:33:36;;;;;;;4.90;2.00;;;10.60;99.90;;;;;;5081012;28;20024;-79
2021/05/28 03:36:02;;;;;;;5.20;1.98;;;10.60;99.90;;;;;;5079944;28;20130;-78
2021/05/28 03:38:27;;;;;;;6.05;1.70;;;10.60;99.90;;;;;;5080168;28;20059;-80
2021/05/28 03:40:53;;;;;;;3.03;1.63;;;10.60;99.90;;;;;;5061367;28;20082;-79
2021/05/28 03:43:19;;;;;;;3.65;1.63;;;10.60;99.90;;;;;;5080394;28;20073;-80
2021/05/28 03:45:44;;;;;;;3.90;1.77;;;10.60;99.90;;;;;;5077627;28;20146;-79
2021/05/28 03:48:10;;;;;;;3.00;1.40;;;10.60;99.90;;;;;;5080041;28;20033;-79
2021/05/28 03:50:36;;;;;;;4.00;1.95;;;10.60;99.90;;;;;;5079732;28;20392;-78
2021/05/28 03:53:01;;;;;;;3.33;1.55;;;10.60;99.90;;;;;;5060087;28;20032;-80
2021/05/28 03:55:27;;;;;;;3.45;1.60;;;10.60;99.90;;;;;;5072304;28;20020;-80
2021/05/28 03:57:53;;;;;;;3.03;1.60;;;10.60;99.90;;;;;;5078759;28;20029;-80
2021/05/28 04:00:19;;;;;;;4.45;1.70;;;10.60;99.90;;;;;;5079184;28;20499;-78
2021/05/28 04:02:44;;;;;;;4.00;1.85;;;10.60;99.90;;;;;;5077860;28;20490;-78
2021/05/28 04:05:11;;;;;;;3.13;1.50;;;10.60;99.90;;;;;;5080825;28;20028;-79
2021/05/28 04:07:37;;;;;;;3.28;1.50;;;10.60;99.90;;;;;;5090393;28;20372;-80
2021/05/28 04:10:04;;;;;;;3.03;1.55;;;10.60;99.90;;;;;;5090026;28;20047;-75
2021/05/28 04:12:29;;;;;;;3.30;1.80;;;10.60;99.90;;;;;;5077731;28;20096;-80
2021/05/28 04:14:55;;;;;;;4.28;1.90;;;10.60;99.90;;;;;;5088476;28;20044;-79
2021/05/28 04:17:21;;;;;;;3.72;1.55;;;10.60;99.90;;;;;;5099485;28;20075;-78
2021/05/28 04:19:47;;;;;;;3.42;1.65;;;10.50;99.90;;;;;;5087848;28;20094;-80
2021/05/28 04:22:13;;;;;;;3.25;1.40;;;10.60;99.90;;;;;;5061158;28;20029;-79
2021/05/28 04:24:38;;;;;;;3.08;1.48;;;10.50;99.90;;;;;;5079596;28;20071;-79
2021/05/28 04:27:04;;;;;;;4.75;1.60;;;10.50;99.90;;;;;;5060956;28;20438;-79
2021/05/28 04:29:30;;;;;;;3.35;1.48;;;10.50;99.90;;;;;;5079057;28;20023;-80
2021/05/28 04:31:55;;;;;;;3.45;1.63;;;10.60;99.90;;;;;;5079321;28;20052;-80
2021/05/28 04:34:21;;;;;;;5.00;1.95;;;10.70;99.90;;;;;;5079560;28;20496;-79
2021/05/28 04:36:47;;;;;;;3.60;1.85;;;10.70;99.90;;;;;;5078542;28;20085;-80
2021/05/28 04:39:12;;;;;;;3.53;1.88;;;10.80;99.90;;;;;;5087243;28;20032;-80
2021/05/28 04:41:38;;;;;;;3.60;1.60;;;10.60;99.90;;;;;;5083345;22;20053;-83
2021/05/28 04:44:04;;;;;;;3.92;1.58;;;10.50;99.90;;;;;;5055886;28;20029;-83
2021/05/28 04:46:29;;;;;;;4.28;1.70;;;10.50;99.90;;;;;;5059290;28;20029;-84
2021/05/28 04:48:55;;;;;;;2.85;1.50;;;10.50;99.90;;;;;;5079758;28;20069;-84
2021/05/28 04:51:21;;;;;;;6.15;2.10;;;10.60;99.90;;;;;;5068641;28;20037;-83
2021/05/28 04:53:46;;;;;;;7.05;3.35;;;10.50;99.90;;;;;;5055654;28;20025;-83
2021/05/28 04:56:12;;;;;;;4.75;2.05;;;10.60;99.90;;;;;;5065107;28;20357;-84
2021/05/28 04:58:41;;;;;;;5.70;2.47;;;10.70;99.90;;;;;;5054087;28;20082;-84
2021/05/28 05:01:06;;;;;;;5.20;2.35;;;10.70;99.90;;;;;;5054290;28;20100;-85
2021/05/28 05:03:32;;;;;;;5.80;2.40;;;10.80;99.90;;;;;;5052591;28;20060;-84
2021/05/28 05:05:57;;;;;;;4.63;2.40;;;10.90;99.90;;;;;;5035836;28;20025;-85
2021/05/28 05:08:23;;;;;;;5.50;3.00;;;10.90;99.90;;;;;;5053609;28;20025;-85
2021/05/28 05:10:49;;;;;;;5.60;2.20;;;10.90;99.90;;;;;;5070278;28;20031;-84
2021/05/28 05:13:15;;;;;;;7.70;2.90;;;11.00;99.90;;;;;;5053309;28;20029;-84
2021/05/28 05:15:41;;;;;;;7.53;3.05;;;10.90;99.90;;;;;;5035432;28;20030;-85
2021/05/28 05:18:07;;;;;;;5.18;2.90;;;10.90;99.90;;;;;;5033845;28;20032;-85
2021/05/28 05:20:34;;;;;;;7.60;3.35;;;11.00;99.90;;;;;;5033920;28;20032;-85
2021/05/28 05:23:02;;;;;;;5.07;2.78;;;11.00;99.90;;;;;;5035671;28;20548;-85
2021/05/28 05:25:28;;;;;;;7.07;3.22;;;11.00;99.90;;;;;;5034692;28;20116;-85
2021/05/28 05:27:53;;;;;;;5.63;3.05;;;11.10;99.90;;;;;;5035780;28;20080;-84
2021/05/28 05:30:20;;;;;;;5.68;2.63;;;11.10;99.90;;;;;;5045010;28;20025;-85
2021/05/28 05:32:45;;;;;;;6.68;2.90;;;11.10;99.90;;;;;;5055766;28;20025;-85
2021/05/28 05:35:11;;;;;;;5.53;3.30;;;11.20;99.90;;;;;;5057756;28;20028;-84
2021/05/28 05:37:37;;;;;;;8.30;3.60;;;11.20;99.90;;;;;;5058067;28;20523;-85
2021/05/28 05:40:08;;;;;;;9.43;3.53;;;11.20;99.90;;;;;;5065947;28;20037;-86
2021/05/28 05:42:37;;;;;;;9.82;4.18;;;11.20;99.90;;;;;;5076668;28;20489;-85
2021/05/28 05:45:03;;;;;;;6.18;3.20;;;11.20;99.90;;;;;;5056132;28;20444;-84
2021/05/28 05:47:29;;;;;;;6.13;3.53;;;11.20;99.90;;;;;;5048103;28;20480;-84
2021/05/28 05:49:54;;;;;;;7.00;3.80;;;11.20;99.90;;;;;;5037200;28;20036;-85
2021/05/28 05:52:20;;;;;;;6.75;3.25;;;11.30;99.90;;;;;;5035969;28;20566;-85
2021/05/28 05:54:46;;;;;;;8.70;4.00;;;11.40;99.90;;;;;;5036990;28;20420;-85
2021/05/28 05:57:12;;;;;;;5.63;3.17;;;11.30;99.90;;;;;;5051931;28;20030;-85
2021/05/28 05:59:38;;;;;;;7.85;3.97;;;11.40;99.90;;;;;;5037551;28;20025;-84
2021/05/28 06:02:04;;;;;;;6.40;3.35;;;11.50;99.90;;;;;;5034201;28;20739;-84
2021/05/28 06:04:29;;;;;;;7.68;3.42;;;11.50;99.90;;;;;;5061742;28;20033;-85
2021/05/28 06:06:55;;;;;;;5.63;3.30;;;11.50;99.90;;;;;;5040271;28;20045;-85
2021/05/28 06:09:21;;;;;;;7.53;4.00;;;11.50;99.90;;;;;;5033943;28;20026;-85
2021/05/28 06:11:46;;;;;;;7.38;3.55;;;11.60;99.90;;;;;;5033961;28;20029;-85
2021/05/28 06:14:12;;;;;;;7.20;3.30;;;11.60;99.90;;;;;;5035401;28;20037;-85
2021/05/28 06:16:38;;;;;;;7.35;3.60;;;11.80;99.90;;;;;;5034699;28;20040;-85
2021/05/28 06:19:03;;;;;;;7.18;3.80;;;11.80;99.90;;;;;;5035738;28;20022;-85
2021/05/28 06:21:31;;;;;;;8.93;3.42;;;12.00;99.90;;;;;;5036823;28;20033;-85
2021/05/28 06:24:00;;;;;;;10.25;3.85;;;12.00;99.90;;;;;;5050508;28;20036;-87
2021/05/28 06:26:26;;;;;;;7.22;3.58;;;12.00;99.90;;;;;;5052427;28;20056;-85
2021/05/28 06:28:52;;;;;;;6.82;3.78;;;12.10;99.90;;;;;;5037317;28;20116;-86
2021/05/28 06:31:17;;;;;;;7.63;3.83;;;12.00;99.90;;;;;;5037348;28;20118;-86
2021/05/28 06:33:43;;;;;;;7.35;3.92;;;12.10;99.90;;;;;;5059209;28;20025;-86
2021/05/28 06:36:09;;;;;;;7.57;3.38;;;12.20;99.90;;;;;;5075944;28;20028;-85
2021/05/28 06:38:34;;;;;;;7.75;3.05;;;12.30;99.90;;;;;;5084525;28;20058;-85
2021/05/28 06:41:00;;;;;;;7.18;3.28;;;12.40;99.90;;;;;;5076018;28;20028;-85
2021/05/28 06:43:26;;;;;;;7.70;3.58;;;12.50;99.90;;;;;;5064670;28;20055;-85
2021/05/28 06:45:54;;;;;;;8.35;3.88;;;12.60;99.90;;;;;;5073414;28;20029;-85
2021/05/28 06:48:20;;;;;;;6.68;3.38;;;12.60;99.90;;;;;;5077634;28;20024;-85
2021/05/28 06:50:46;;;;;;;7.25;3.13;;;12.70;99.90;;;;;;5058663;28;20732;-85
2021/05/28 06:53:12;;;;;;;7.93;3.00;;;12.50;99.90;;;;;;5059542;28;20029;-85
2021/05/28 06:55:39;;;;;;;5.65;3.03;;;12.60;99.90;;;;;;5037407;28;20033;-86
2021/05/28 06:58:05;;;;;;;6.85;3.53;;;12.80;99.90;;;;;;5036640;28;20041;-85
2021/05/28 07:00:31;;;;;;;5.88;3.17;;;13.00;99.90;;;;;;5057325;28;20067;-86
2021/05/28 07:02:56;;;;;;;5.57;2.97;;;13.20;99.90;;;;;;5052932;28;20057;-86
2021/05/28 07:05:24;;;;;;;7.13;3.25;;;13.30;99.90;;;;;;5052680;28;20021;-87
2021/05/28 07:07:53;;;;;;;6.25;3.17;;;13.20;99.90;;;;;;5065548;28;20029;-86
2021/05/28 07:10:19;;;;;;;5.53;3.13;;;13.30;99.90;;;;;;5067232;28;20047;-86
2021/05/28 07:12:45;;;;;;;6.28;3.45;;;13.30;99.90;;;;;;5065452;28;20043;-86
2021/05/28 07:15:16;;;;;;;6.25;3.70;;;13.40;99.90;;;;;;5070057;28;20067;-86
2021/05/28 07:17:42;;;;;;;8.13;3.63;;;13.50;99.90;;;;;;5068974;28;20068;-83
2021/05/28 07:20:08;;;;;;;6.32;3.58;;;13.90;99.90;;;;;;5059344;28;20042;-84
2021/05/28 07:22:34;;;;;;;7.25;3.10;;;13.80;99.90;;;;;;5065201;28;20035;-84
2021/05/28 07:25:01;;;;;;;9.05;3.20;;;13.90;99.90;;;;;;5060645;28;20029;-84
2021/05/28 07:27:26;;;;;;;9.98;3.38;;;13.90;99.90;;;;;;5053907;28;20081;-84
2021/05/28 07:29:52;;;;;;;7.30;3.63;;;14.10;99.90;;;;;;5062983;28;20502;-84
2021/05/28 07:32:18;;;;;;;6.55;3.30;;;14.10;99.90;;;;;;5066540;28;20032;-86
2021/05/28 07:34:44;;;;;;;6.10;3.30;;;14.20;99.90;;;;;;5069480;28;20021;-84
2021/05/28 07:37:10;;;;;;;5.70;3.17;;;14.10;99.90;;;;;;5084418;28;20388;-84
2021/05/28 07:39:35;;;;;;;5.68;2.85;;;14.20;99.90;;;;;;5063037;28;20033;-84
2021/05/28 07:42:03;;;;;;;8.20;3.42;;;14.20;99.90;;;;;;5068107;28;20038;-86
2021/05/28 07:44:29;;;;;;;6.03;2.60;;;14.20;99.90;;;;;;5061514;28;20078;-86
2021/05/28 07:46:55;;;;;;;7.80;3.15;;;14.30;99.90;;;;;;5069205;28;20082;-83
2021/05/28 07:49:21;;;;;;;6.65;3.08;;;14.40;99.90;;;;;;5073614;28;20021;-84
2021/05/28 07:51:48;;;;;;;5.65;2.70;;;14.40;99.90;;;;;;5073336;28;20025;-85
2021/05/28 07:54:16;;;;;;;5.93;3.30;;;14.30;99.90;;;;;;5073021;28;20024;-84
2021/05/28 07:56:42;;;;;;;8.32;3.30;;;14.50;99.90;;;;;;5068558;28;20040;-84
2021/05/28 07:59:08;;;;;;;7.28;3.83;;;14.50;99.90;;;;;;5068703;28;20025;-85
2021/05/28 08:01:34;;;;;;;5.75;3.20;;;14.60;99.90;;;;;;5051311;28;20536;-84
2021/05/28 08:04:00;;;;;;;6.25;3.30;;;14.60;99.90;;;;;;5065545;28;20418;-86
2021/05/28 08:06:26;;;;;;;5.72;2.80;;;14.60;99.90;;;;;;5066718;28;20036;-86
2021/05/28 08:08:52;;;;;;;7.10;3.38;;;14.90;99.90;;;;;;5054866;28;20412;-86
2021/05/28 08:11:18;;;;;;;6.35;2.85;;;15.10;99.90;;;;;;5058360;28;20028;-84
2021/05/28 08:13:44;;;;;;;7.28;4.32;;;15.20;99.90;;;;;;5052724;28;20107;-85
2021/05/28 08:16:10;;;;;;;5.82;3.13;;;15.40;99.90;;;;;;5070138;28;20520;-84
2021/05/28 08:18:36;;;;;;;6.22;2.97;;;15.50;99.90;;;;;;5052750;28;20484;-85
2021/05/28 08:21:04;;;;;;;5.80;2.90;;;15.40;99.90;;;;;;5062729;28;20139;-87
2021/05/28 08:23:30;;;;;;;6.90;3.15;;;15.40;99.90;;;;;;5046148;28;20112;-85
2021/05/28 08:25:55;;;;;;;5.25;2.83;;;15.30;99.90;;;;;;5061136;28;20100;-85
2021/05/28 08:28:21;;;;;;;6.05;2.67;;;15.30;99.90;;;;;;5048506;28;20141;-85
2021/05/28 08:30:47;;;;;;;6.00;3.10;;;15.10;99.90;;;;;;5047484;28;20036;-85
2021/05/28 08:33:13;;;;;;;5.20;2.35;;;15.10;99.90;;;;;;5065838;28;20051;-85
2021/05/28 08:35:40;;;;;;;5.47;2.60;;;15.30;99.90;;;;;;5067255;28;20029;-85
2021/05/28 08:38:06;;;;;;;6.03;2.13;;;15.50;99.90;;;;;;5060530;28;20059;-84
2021/05/28 08:40:34;;;;;;;5.13;2.63;;;15.70;99.90;;;;;;5054187;28;20032;-84
2021/05/28 08:43:05;;;;;;;4.20;2.28;;;15.90;99.90;;;;;;5070751;28;20029;-85
2021/05/28 08:45:41;;;;;;;5.00;1.95;;;16.10;99.90;;;;;;5065058;28;20093;-87
2021/05/28 08:48:10;;;;;;;4.03;1.80;;;16.00;99.90;;;;;;5061636;28;20032;-89
2021/05/28 08:50:38;;;;;;;3.40;1.63;;;16.00;99.90;;;;;;5064936;28;20021;-86
2021/05/28 08:53:09;;;;;;;4.90;1.75;;;16.10;99.90;;;;;;5058455;28;20023;-87
2021/05/28 08:55:37;;;;;;;3.70;1.52;;;15.90;99.90;;;;;;5057156;28;20028;-87
2021/05/28 08:58:13;;;;;;;4.78;2.15;;;16.00;99.90;;;;;;5074156;28;20029;-84
2021/05/28 09:00:40;;;;;;;4.70;2.30;;;15.90;99.90;;;;;;5071264;28;20504;-84
2021/05/28 09:03:19;;;;;;;4.95;2.50;;;16.10;99.90;;;;;;5064285;28;20089;-84
2021/05/28 09:05:45;;;;;;;6.20;2.60;;;16.10;99.90;;;;;;5052886;28;20029;-84
2021/05/28 09:08:11;;;;;;;5.47;2.53;;;16.00;99.90;;;;;;5068596;28;20039;-84
2021/05/28 09:10:39;;;;;;;5.35;2.65;;;15.80;99.90;;;;;;5063733;28;20025;-86
2021/05/28 09:13:11;;;;;;;5.40;2.80;;;15.70;99.90;;;;;;5069754;28;20169;-84
2021/05/28 09:15:47;;;;;;;5.07;2.50;;;15.60;99.90;;;;;;5072528;28;20074;-84
2021/05/28 09:18:13;;;;;;;6.15;2.58;;;15.60;99.90;;;;;;5068602;28;20024;-85
2021/05/28 09:20:44;;;;;;;5.50;2.70;;;15.80;99.90;;;;;;5069230;28;20024;-86
2021/05/28 09:23:11;;;;;;;4.20;2.33;;;15.80;99.90;;;;;;5060517;28;20032;-86
2021/05/28 09:25:52;;;;;;;4.55;2.53;;;15.80;99.90;;;;;;5060984;28;20506;-87
2021/05/28 09:28:17;;;;;;;4.93;2.20;;;16.00;99.90;;;;;;5062552;28;20489;-87
2021/05/28 09:30:52;;;;;;;4.85;2.20;;;15.90;99.90;;;;;;5073068;28;20020;-87
2021/05/28 09:33:19;;;;;;;8.38;3.25;;;15.90;99.90;;;;;;5059836;28;20020;-86
2021/05/28 09:35:45;;;;;;;6.32;2.22;;;16.00;99.90;;;;;;5060548;28;20492;-86
2021/05/28 09:38:20;;;;;;;5.38;2.38;;;16.30;99.90;;;;;;5052171;28;20059;-84
2021/05/28 09:40:46;;;;;;;4.53;2.25;;;16.60;99.90;;;;;;5056282;28;20033;-84
2021/05/28 09:43:14;;;;;;;5.70;1.98;;;17.00;99.90;;;;;;5061957;28;20429;-86
2021/05/28 09:45:41;;;;;;;5.32;2.35;;;17.30;99.90;;;;;;5058286;28;20064;-85
2021/05/28 09:48:15;;;;;;;4.78;2.22;;;17.60;98.30;;;;;;5074579;28;20395;-84
2021/05/28 09:50:48;;;;;;;4.90;2.30;;;17.50;96.50;;;;;;5061485;28;21264;-87
2021/05/28 09:53:49;;;;;;;4.82;2.10;;;17.50;97.80;;;;;;5077876;28;20560;-87
2021/05/28 09:56:27;;;;;;;5.78;2.58;;;17.50;98.00;;;;;;4950173;28;20041;-87
2021/05/28 09:59:06;;;;;;;7.05;2.80;;;17.50;97.50;;;;;;5043641;28;20127;-85
2021/05/28 10:01:34;;;;;;;4.82;2.63;;;17.60;99.00;;;;;;5027543;28;20025;-86
2021/05/28 10:04:10;;;;;;;6.55;2.60;;;17.30;98.60;;;;;;5057292;28;20017;-86
2021/05/28 10:06:38;;;;;;;5.78;2.42;;;17.30;98.90;;;;;;5046539;28;20370;-86
2021/05/28 10:09:10;;;;;;;4.32;2.30;;;17.50;97.90;;;;;;5054865;28;20025;-86
2021/05/28 10:11:38;;;;;;;6.40;2.15;;;17.50;98.30;;;;;;5041348;28;20156;-86
2021/05/28 10:14:05;;;;;;;5.07;2.20;;;17.60;96.60;;;;;;5059871;28;20029;-86
2021/05/28 10:16:31;;;;;;;4.68;2.35;;;17.80;97.80;;;;;;5064130;28;20025;-86
2021/05/28 10:18:58;;;;;;;5.70;2.45;;;17.90;96.80;;;;;;5066901;28;20037;-86
2021/05/28 10:21:25;;;;;;;5.70;2.47;;;17.80;96.60;;;;;;5068522;28;20024;-86
2021/05/28 10:23:51;;;;;;;4.15;2.15;;;17.80;96.60;;;;;;5067643;28;20021;-85
2021/05/28 10:26:24;;;;;;;3.85;2.53;;;17.60;95.10;;;;;;5067177;28;20036;-87
2021/05/28 10:28:49;;;;;;;4.25;2.10;;;17.40;94.90;;;;;;5064704;28;20159;-86
2021/05/28 10:31:16;;;;;;;3.28;2.03;;;17.30;96.50;;;;;;5063020;28;20055;-86
2021/05/28 10:33:49;;;;;;;4.03;2.08;;;17.20;95.50;;;;;;5069843;28;20024;-84
2021/05/28 10:36:44;;;;;;;3.45;1.60;;;17.00;95.70;;;;;;5061175;28;20563;-85
2021/05/28 10:39:11;;;;;;;6.30;1.77;;;17.20;94.70;;;;;;5064766;28;20016;-86
2021/05/28 10:41:39;;;;;;;5.45;1.70;;;17.20;95.10;;;;;;5067166;28;20028;-86
2021/05/28 10:44:07;;;;;;;3.92;2.00;;;17.50;94.00;;;;;;5063798;28;20028;-86
2021/05/28 10:46:34;;;;;;;4.97;1.83;;;17.70;93.70;;;;;;5062971;28;20100;-86
2021/05/28 10:49:00;;;;;;;6.15;2.10;;;17.80;93.50;;;;;;5054523;28;20523;-86
2021/05/28 10:51:28;;;;;;;3.92;1.98;;;17.70;92.20;;;;;;5065322;28;20017;-85
2021/05/28 10:53:55;;;;;;;4.43;2.10;;;18.00;91.60;;;;;;5052785;28;20145;-85
2021/05/28 10:56:23;;;;;;;4.38;1.73;;;17.90;91.40;;;;;;5060095;28;20031;-85
2021/05/28 10:58:57;;;;;;;4.70;1.75;;;18.00;90.70;;;;;;5059776;28;20677;-85
2021/05/28 11:01:35;;;;;;;3.67;1.85;;;17.60;91.10;;;;;;5061983;28;20028;-84
2021/05/28 11:04:08;;;;;;;5.40;1.98;;;17.50;91.60;;;;;;5067776;28;20096;-84
2021/05/28 11:07:02;;;;;;;4.13;1.80;;;17.40;92.50;;;;;;5072245;28;20020;-84
2021/05/28 11:09:44;;;;;;;4.93;1.67;;;17.50;92.30;;;;;;5066839;28;20027;-83
2021/05/28 11:12:13;;;;;;;;;;;17.40;91.50;;;;;;5064517;28;20437;-85
2021/05/28 11:15:10;;;;;;;3.17;1.40;;;17.50;88.50;;;;;;5116722;22;19920;-82
2021/05/28 11:17:59;;;;;;;2.72;1.20;;;17.40;88.30;;;;;;5099877;28;20081;-82
2021/05/28 11:21:06;;;;;;;5.05;1.90;;;18.00;88.20;;;;;;5103435;28;20036;-82
2021/05/28 11:23:41;;;;;;;3.05;1.58;;;18.30;89.20;;;;;;5088014;28;20107;-83
2021/05/28 11:26:21;;;;;;;3.13;1.20;;;18.50;87.50;;;;;;5076467;28;20026;-85
2021/05/28 11:28:53;;;;;;;3.25;0.98;;;19.30;81.10;;;;;;5075278;28;20531;-84
2021/05/28 11:31:20;;;;;;;3.08;1.10;;;19.70;77.90;;;;;;5101696;28;20049;-84
2021/05/28 11:33:46;;;;;;;2.22;0.90;;;19.70;76.80;;;;;;5105007;28;20053;-83
2021/05/28 11:36:27;;;;;;;4.25;1.35;;;19.50;79.40;;;;;;5097410;28;20122;-82
2021/05/28 11:39:00;;;;;;;3.17;1.50;;;19.20;78.90;;;;;;5100104;28;20089;-82
2021/05/28 11:42:03;;;;;;;7.25;1.63;;;18.90;79.60;;;;;;5100993;28;20050;-84
2021/05/28 11:44:34;;;;;;;3.75;1.30;;;18.60;79.60;;;;;;5017179;28;20556;-84
2021/05/28 11:47:02;;;;;;;4.53;1.70;;;18.20;80.40;;;;;;5056992;28;20048;-84
2021/05/28 11:49:27;;;;;;;2.42;1.20;;;18.20;82.20;;;;;;5073102;28;20118;-82
2021/05/28 11:52:05;;;;;;;2.92;1.15;;;18.60;80.80;;;;;;5061296;28;20583;-82
2021/05/28 11:54:33;;;;;;;2.67;1.20;;;19.40;80.80;;;;;;5087141;28;20024;-84
2021/05/28 11:57:07;;;;;;;3.92;1.40;;;20.00;76.20;;;;;;5091423;28;20031;-85
2021/05/28 11:59:55;;;;;;;3.80;1.60;;;19.50;76.50;;;;;;5067972;28;20438;-85
2021/05/28 12:02:55;;;;;;;3.53;1.50;;;19.30;77.60;;;;;;5075058;28;20029;-85
2021/05/28 12:05:36;;;;;;;2.60;1.27;;;19.20;79.40;;;;;;5062014;28;20032;-85
2021/05/28 12:08:24;;;;;;;3.00;1.45;;;19.70;76.30;;;;;;5089336;28;20028;-84
2021/05/28 12:10:52;;;;;;;4.50;1.50;;;20.10;75.30;;;;;;5071788;28;20128;-84
2021/05/28 12:13:20;;;;;;;2.70;1.52;;;20.10;75.50;;;;;;5083801;28;20028;-83
2021/05/28 12:15:55;;;;;;;3.67;1.50;;;19.90;74.70;;;;;;5076179;28;20043;-84
2021/05/28 12:18:24;;;;;;;3.67;1.67;;;19.50;76.30;;;;;;5080483;28;20063;-84
2021/05/28 12:21:01;;;;;;;5.20;1.40;;;19.10;76.80;;;;;;5072436;28;20073;-84
2021/05/28 12:23:28;;;;;;;3.25;1.73;;;18.70;78.40;;;;;;5076228;28;20024;-84
2021/05/28 12:25:56;;;;;;;3.15;1.50;;;18.60;76.80;;;;;;5086424;28;20032;-84
2021/05/28 12:28:34;;;;;;;4.18;1.63;;;18.60;77.20;;;;;;5090479;28;20454;-85
2021/05/28 12:31:13;;;;;;;3.17;1.55;;;18.70;75.60;;;;;;5101739;28;20019;-85
2021/05/28 12:33:40;;;;;;;4.85;1.70;;;19.40;73.90;;;;;;5086725;28;20028;-85
2021/05/28 12:36:08;;;;;;;2.70;1.38;;;20.10;72.20;;;;;;5095332;28;20024;-84
2021/05/28 12:38:39;;;;;;;3.38;1.23;;;19.70;71.00;;;;;;5104056;28;20054;-84
2021/05/28 12:41:16;;;;;;;2.65;0.90;;;19.50;71.50;;;;;;5091037;28;20491;-85
2021/05/28 12:43:44;;;;;;;3.13;1.00;;;19.30;71.80;;;;;;5092352;28;20028;-84
2021/05/28 12:46:24;;;;;;;3.20;1.00;;;18.90;72.00;;;;;;5080287;28;20314;-85
2021/05/28 12:48:58;;;;;;;2.03;0.75;;;18.60;71.90;;;;;;5066693;28;20500;-84
2021/05/28 12:51:44;;;;;;;2.70;0.90;;;18.50;70.80;;;;;;5082055;28;20023;-84
2021/05/28 12:54:30;;;;;;;1.65;0.70;;;18.30;70.30;;;;;;5091053;28;20016;-84
2021/05/28 12:56:58;;;;;;;2.38;0.70;;;18.20;69.50;;;;;;5070546;28;20024;-84